sensor_id;sensor_type;location;lat;lon;timestamp;pressure;altitude;pressure_sealevel;temperature;humidity
39487;BME280;25173;50.430;18.926;2023-02-18T00:02:36;97842.63;;;11.92;76.19
39487;BME280;25173;50.430;18.926;2023-02-18T00:05:37;97866.06;;;11.93;75.70
39487;BME280;25173;50.430;18.926;2023-02-18T00:08:38;97861.63;;;11.74;77.58
39487;BME280;25173;50.430;18.926;2023-02-18T00:11:39;97872.81;;;11.43;79.00
39487;BME280;25173;50.430;18.926;2023-02-18T00:14:39;97901.75;;;11.05;81.92
39487;BME280;25173;50.430;18.926;2023-02-18T00:17:40;97940.75;;;10.52;85.16
39487;BME280;25173;50.430;18.926;2023-02-18T00:20:41;97953.41;;;10.07;87.66
39487;BME280;25173;50.430;18.926;2023-02-18T00:23:41;97931.13;;;9.80;88.26
39487;BME280;25173;50.430;18.926;2023-02-18T00:26:43;97931.16;;;9.59;88.81
39487;BME280;25173;50.430;18.926;2023-02-18T00:29:44;97933.88;;;9.44;89.87
39487;BME280;25173;50.430;18.926;2023-02-18T00:32:45;97948.84;;;9.37;90.27
39487;BME280;25173;50.430;18.926;2023-02-18T00:35:46;97941.22;;;9.28;90.36
39487;BME280;25173;50.430;18.926;2023-02-18T00:39:00;97959.97;;;9.15;90.57
39487;BME280;25173;50.430;18.926;2023-02-18T00:42:01;97962.66;;;9.05;91.05
39487;BME280;25173;50.430;18.926;2023-02-18T00:45:02;97968.34;;;8.98;91.47
39487;BME280;25173;50.430;18.926;2023-02-18T00:48:03;97965.38;;;8.94;91.66
39487;BME280;25173;50.430;18.926;2023-02-18T00:51:05;97967.22;;;8.84;91.43
39487;BME280;25173;50.430;18.926;2023-02-18T00:54:07;97947.41;;;8.78;91.77
39487;BME280;25173;50.430;18.926;2023-02-18T00:57:08;97946.84;;;8.71;91.40
39487;BME280;25173;50.430;18.926;2023-02-18T01:00:09;97961.75;;;8.69;91.55
39487;BME280;25173;50.430;18.926;2023-02-18T01:03:10;97950.63;;;8.65;91.75
39487;BME280;25173;50.430;18.926;2023-02-18T01:06:11;97935.41;;;8.64;91.89
39487;BME280;25173;50.430;18.926;2023-02-18T01:09:13;97973.97;;;8.66;92.16
39487;BME280;25173;50.430;18.926;2023-02-18T01:12:14;97949.25;;;8.68;91.98
39487;BME280;25173;50.430;18.926;2023-02-18T01:15:16;97948.44;;;8.67;92.01
39487;BME280;25173;50.430;18.926;2023-02-18T01:18:18;97947.09;;;8.65;91.86
39487;BME280;25173;50.430;18.926;2023-02-18T01:21:19;97945.97;;;8.61;91.80
39487;BME280;25173;50.430;18.926;2023-02-18T01:24:20;97964.72;;;8.57;91.75
39487;BME280;25173;50.430;18.926;2023-02-18T01:27:21;97952.47;;;8.49;91.49
39487;BME280;25173;50.430;18.926;2023-02-18T01:30:22;97957.59;;;8.41;91.34
39487;BME280;25173;50.430;18.926;2023-02-18T01:33:23;97986.28;;;8.32;91.26
39487;BME280;25173;50.430;18.926;2023-02-18T01:36:24;98009.03;;;8.26;91.33
39487;BME280;25173;50.430;18.926;2023-02-18T01:39:24;97966.69;;;8.19;91.09
39487;BME280;25173;50.430;18.926;2023-02-18T01:42:27;97956.34;;;8.16;91.20
39487;BME280;25173;50.430;18.926;2023-02-18T01:49:05;97960.69;;;8.17;91.01
39487;BME280;25173;50.430;18.926;2023-02-18T01:52:19;97984.00;;;8.13;90.61
39487;BME280;25173;50.430;18.926;2023-02-18T01:55:20;97970.38;;;8.03;89.96
39487;BME280;25173;50.430;18.926;2023-02-18T01:58:21;97974.41;;;7.96;89.54
39487;BME280;25173;50.430;18.926;2023-02-18T02:01:22;97972.75;;;7.90;89.17
39487;BME280;25173;50.430;18.926;2023-02-18T02:04:25;97993.59;;;7.84;89.11
39487;BME280;25173;50.430;18.926;2023-02-18T02:07:27;97969.69;;;7.81;88.77
39487;BME280;25173;50.430;18.926;2023-02-18T02:10:40;97972.66;;;7.79;88.80
39487;BME280;25173;50.430;18.926;2023-02-18T02:23:34;97990.31;;;7.82;87.85
39487;BME280;25173;50.430;18.926;2023-02-18T02:40:06;97995.03;;;8.02;82.80
39487;BME280;25173;50.430;18.926;2023-02-18T02:46:42;97999.16;;;8.09;81.91
39487;BME280;25173;50.430;18.926;2023-02-18T02:50:09;98000.81;;;8.15;81.50
39487;BME280;25173;50.430;18.926;2023-02-18T02:53:21;98016.31;;;8.20;80.24
39487;BME280;25173;50.430;18.926;2023-02-18T02:56:24;98013.66;;;8.30;80.17
39487;BME280;25173;50.430;18.926;2023-02-18T02:59:27;98019.16;;;8.35;78.79
39487;BME280;25173;50.430;18.926;2023-02-18T03:02:57;98015.13;;;8.43;79.30
39487;BME280;25173;50.430;18.926;2023-02-18T03:19:46;98046.31;;;8.45;76.18
39487;BME280;25173;50.430;18.926;2023-02-18T03:22:50;98042.28;;;8.48;76.62
39487;BME280;25173;50.430;18.926;2023-02-18T03:25:55;98043.66;;;8.50;75.70
39487;BME280;25173;50.430;18.926;2023-02-18T03:29:00;98046.13;;;8.52;74.38
39487;BME280;25173;50.430;18.926;2023-02-18T03:32:05;98042.84;;;8.50;72.75
39487;BME280;25173;50.430;18.926;2023-02-18T03:35:10;98042.59;;;8.51;73.19
39487;BME280;25173;50.430;18.926;2023-02-18T03:38:20;98067.53;;;8.48;72.91
39487;BME280;25173;50.430;18.926;2023-02-18T03:41:23;98057.19;;;8.45;72.49
39487;BME280;25173;50.430;18.926;2023-02-18T03:44:24;98052.31;;;8.42;72.90
39487;BME280;25173;50.430;18.926;2023-02-18T03:47:25;98056.34;;;8.40;73.33
39487;BME280;25173;50.430;18.926;2023-02-18T03:50:26;98060.19;;;8.44;74.99
39487;BME280;25173;50.430;18.926;2023-02-18T03:53:26;98066.13;;;8.41;74.74
39487;BME280;25173;50.430;18.926;2023-02-18T03:56:27;98062.84;;;8.39;75.03
39487;BME280;25173;50.430;18.926;2023-02-18T03:59:27;98063.38;;;8.36;74.88
39487;BME280;25173;50.430;18.926;2023-02-18T04:02:28;98072.00;;;8.28;74.44
39487;BME280;25173;50.430;18.926;2023-02-18T04:05:29;98095.56;;;8.22;74.29
39487;BME280;25173;50.430;18.926;2023-02-18T04:08:29;98069.22;;;8.23;74.83
39487;BME280;25173;50.430;18.926;2023-02-18T04:11:30;98074.63;;;8.17;71.80
39487;BME280;25173;50.430;18.926;2023-02-18T04:14:30;98085.22;;;8.19;71.94
39487;BME280;25173;50.430;18.926;2023-02-18T04:17:32;98074.63;;;8.17;71.58
39487;BME280;25173;50.430;18.926;2023-02-18T04:20:33;98074.63;;;8.17;72.94
39487;BME280;25173;50.430;18.926;2023-02-18T04:23:33;98081.13;;;8.16;72.70
39487;BME280;25173;50.430;18.926;2023-02-18T04:26:34;98079.44;;;8.10;71.87
39487;BME280;25173;50.430;18.926;2023-02-18T04:29:35;98091.38;;;8.09;72.28
39487;BME280;25173;50.430;18.926;2023-02-18T04:32:35;98088.13;;;8.07;72.65
39487;BME280;25173;50.430;18.926;2023-02-18T04:35:36;98091.38;;;8.09;73.43
39487;BME280;25173;50.430;18.926;2023-02-18T04:38:37;98091.03;;;8.01;71.30
39487;BME280;25173;50.430;18.926;2023-02-18T04:41:38;98092.63;;;7.97;70.08
39487;BME280;25173;50.430;18.926;2023-02-18T04:44:38;98090.19;;;7.95;70.56
39487;BME280;25173;50.430;18.926;2023-02-18T04:47:39;98092.31;;;7.93;69.69
39487;BME280;25173;50.430;18.926;2023-02-18T04:50:40;98097.50;;;7.95;70.48
39487;BME280;25173;50.430;18.926;2023-02-18T04:53:40;98096.97;;;7.93;68.95
39487;BME280;25173;50.430;18.926;2023-02-18T04:56:41;98099.09;;;7.91;69.81
39487;BME280;25173;50.430;18.926;2023-02-18T04:59:41;98096.66;;;7.89;69.56
39487;BME280;25173;50.430;18.926;2023-02-18T05:02:43;98086.28;;;7.86;67.46
39487;BME280;25173;50.430;18.926;2023-02-18T05:05:43;98096.66;;;7.89;68.70
39487;BME280;25173;50.430;18.926;2023-02-18T05:08:45;98105.81;;;7.83;65.26
39487;BME280;25173;50.430;18.926;2023-02-18T05:11:46;98103.09;;;7.83;68.88
39487;BME280;25173;50.430;18.926;2023-02-18T05:14:47;98101.47;;;7.82;68.93
39487;BME280;25173;50.430;18.926;2023-02-18T05:17:47;98105.25;;;7.81;69.16
39487;BME280;25173;50.430;18.926;2023-02-18T05:20:48;98094.13;;;7.77;67.73
39487;BME280;25173;50.430;18.926;2023-02-18T05:23:48;98109.56;;;7.77;68.36
39487;BME280;25173;50.430;18.926;2023-02-18T05:26:49;98098.44;;;7.78;69.75
39487;BME280;25173;50.430;18.926;2023-02-18T05:29:49;98102.78;;;7.79;68.36
39487;BME280;25173;50.430;18.926;2023-02-18T05:32:50;98103.59;;;7.80;67.90
39487;BME280;25173;50.430;18.926;2023-02-18T05:35:51;98116.91;;;7.82;68.37
39487;BME280;25173;50.430;18.926;2023-02-18T05:38:57;98119.06;;;7.79;66.23
39487;BME280;25173;50.430;18.926;2023-02-18T05:42:02;98118.00;;;7.86;66.99
39487;BME280;25173;50.430;18.926;2023-02-18T05:45:09;98100.19;;;7.90;68.32
39487;BME280;25173;50.430;18.926;2023-02-18T05:48:10;98103.69;;;7.90;68.11
39487;BME280;25173;50.430;18.926;2023-02-18T05:51:11;98110.22;;;7.94;69.27
39487;BME280;25173;50.430;18.926;2023-02-18T05:54:15;98105.13;;;7.98;69.47
39487;BME280;25173;50.430;18.926;2023-02-18T05:57:24;98120.59;;;8.02;67.79
39487;BME280;25173;50.430;18.926;2023-02-18T06:00:29;98119.84;;;8.07;67.46
39487;BME280;25173;50.430;18.926;2023-02-18T06:03:36;98126.38;;;8.11;68.11
39487;BME280;25173;50.430;18.926;2023-02-18T06:06:37;98113.38;;;8.13;67.69
39487;BME280;25173;50.430;18.926;2023-02-18T06:09:39;98120.16;;;8.15;66.75
39487;BME280;25173;50.430;18.926;2023-02-18T06:12:43;98129.44;;;8.19;68.36
39487;BME280;25173;50.430;18.926;2023-02-18T06:15:43;98127.56;;;8.25;65.26
39487;BME280;25173;50.430;18.926;2023-02-18T06:18:44;98123.59;;;8.33;66.82
39487;BME280;25173;50.430;18.926;2023-02-18T06:21:45;98150.25;;;8.41;65.65
39487;BME280;25173;50.430;18.926;2023-02-18T06:24:45;98142.66;;;8.43;64.46
39487;BME280;25173;50.430;18.926;2023-02-18T06:27:46;98150.59;;;8.49;64.66
39487;BME280;25173;50.430;18.926;2023-02-18T06:30:46;98145.75;;;8.56;62.66
39487;BME280;25173;50.430;18.926;2023-02-18T06:33:47;98153.41;;;8.65;62.80
39487;BME280;25173;50.430;18.926;2023-02-18T06:36:54;98144.53;;;8.79;64.45
39487;BME280;25173;50.430;18.926;2023-02-18T06:39:59;98153.00;;;8.88;63.11
39487;BME280;25173;50.430;18.926;2023-02-18T06:43:00;98147.34;;;8.94;62.85
39487;BME280;25173;50.430;18.926;2023-02-18T06:46:02;98146.28;;;9.01;60.17
39487;BME280;25173;50.430;18.926;2023-02-18T06:49:07;98153.34;;;9.02;66.64
39487;BME280;25173;50.430;18.926;2023-02-18T06:52:08;98145.72;;;8.99;60.82
39487;BME280;25173;50.430;18.926;2023-02-18T06:55:09;98148.47;;;9.04;62.58
39487;BME280;25173;50.430;18.926;2023-02-18T06:58:13;98156.06;;;9.07;58.58
39487;BME280;25173;50.430;18.926;2023-02-18T07:01:17;98150.41;;;9.13;61.34
39487;BME280;25173;50.430;18.926;2023-02-18T07:04:18;98150.69;;;9.17;60.72
39487;BME280;25173;50.430;18.926;2023-02-18T07:07:22;98148.00;;;9.22;58.63
39487;BME280;25173;50.430;18.926;2023-02-18T07:10:29;98134.41;;;9.22;57.62
39487;BME280;25173;50.430;18.926;2023-02-18T07:13:33;98143.69;;;9.26;57.94
39487;BME280;25173;50.430;18.926;2023-02-18T07:16:34;98136.59;;;9.25;56.97
39487;BME280;25173;50.430;18.926;2023-02-18T07:19:39;98136.63;;;9.30;56.66
39487;BME280;25173;50.430;18.926;2023-02-18T07:22:39;98138.00;;;9.32;54.25
39487;BME280;25173;50.430;18.926;2023-02-18T07:25:40;98152.41;;;9.38;53.53
39487;BME280;25173;50.430;18.926;2023-02-18T07:28:46;98136.63;;;9.35;50.75
39487;BME280;25173;50.430;18.926;2023-02-18T07:31:47;98139.91;;;9.37;49.85
39487;BME280;25173;50.430;18.926;2023-02-18T07:34:50;98148.88;;;9.43;50.12
39487;BME280;25173;50.430;18.926;2023-02-18T07:37:51;98138.81;;;9.43;46.33
39487;BME280;25173;50.430;18.926;2023-02-18T07:40:53;98149.19;;;9.51;46.24
39487;BME280;25173;50.430;18.926;2023-02-18T07:43:54;98155.75;;;9.60;46.50
39487;BME280;25173;50.430;18.926;2023-02-18T07:46:55;98160.63;;;9.63;45.86
39487;BME280;25173;50.430;18.926;2023-02-18T07:49:55;98177.25;;;9.67;45.24
39487;BME280;25173;50.430;18.926;2023-02-18T07:52:57;98149.22;;;9.66;45.14
39487;BME280;25173;50.430;18.926;2023-02-18T07:55:58;98162.84;;;9.77;45.97
39487;BME280;25173;50.430;18.926;2023-02-18T07:58:59;98150.09;;;9.77;45.12
39487;BME280;25173;50.430;18.926;2023-02-18T08:02:01;98166.09;;;9.79;45.44
39487;BME280;25173;50.430;18.926;2023-02-18T08:05:02;98179.75;;;9.89;45.96
39487;BME280;25173;50.430;18.926;2023-02-18T08:08:03;98181.94;;;9.97;45.34
39487;BME280;25173;50.430;18.926;2023-02-18T08:11:04;98161.25;;;9.91;44.36
39487;BME280;25173;50.430;18.926;2023-02-18T08:14:07;98156.06;;;9.94;44.79
39487;BME280;25173;50.430;18.926;2023-02-18T08:17:10;98151.44;;;9.95;45.29
39487;BME280;25173;50.430;18.926;2023-02-18T08:20:17;98151.44;;;9.95;44.99
39487;BME280;25173;50.430;18.926;2023-02-18T08:23:41;98151.47;;;10.00;44.75
39487;BME280;25173;50.430;18.926;2023-02-18T08:26:42;98161.25;;;10.01;44.52
39487;BME280;25173;50.430;18.926;2023-02-18T08:29:43;98169.16;;;10.02;44.76
39487;BME280;25173;50.430;18.926;2023-02-18T08:32:43;98163.69;;;10.02;44.76
39487;BME280;25173;50.430;18.926;2023-02-18T08:35:45;98153.09;;;10.06;44.53
39487;BME280;25173;50.430;18.926;2023-02-18T08:38:46;98165.06;;;10.10;44.53
39487;BME280;25173;50.430;18.926;2023-02-18T08:41:47;98160.44;;;10.16;44.70
39487;BME280;25173;50.430;18.926;2023-02-18T08:44:47;98167.81;;;10.30;44.58
39487;BME280;25173;50.430;18.926;2023-02-18T08:47:48;98165.94;;;10.36;44.26
39487;BME280;25173;50.430;18.926;2023-02-18T08:50:49;98161.31;;;10.36;44.04
39487;BME280;25173;50.430;18.926;2023-02-18T08:53:49;98195.63;;;10.37;44.28
39487;BME280;25173;50.430;18.926;2023-02-18T08:56:53;98161.84;;;10.38;43.76
39487;BME280;25173;50.430;18.926;2023-02-18T08:59:55;98170.03;;;10.43;44.34
39487;BME280;25173;50.430;18.926;2023-02-18T09:02:55;98162.91;;;10.52;44.57
39487;BME280;25173;50.430;18.926;2023-02-18T09:05:58;98157.47;;;10.63;44.42
39487;BME280;25173;50.430;18.926;2023-02-18T09:08:58;98170.00;;;10.64;44.70
39487;BME280;25173;50.430;18.926;2023-02-18T09:11:59;98171.34;;;10.71;45.09
39487;BME280;25173;50.430;18.926;2023-02-18T09:14:59;98152.00;;;10.88;45.24
39487;BME280;25173;50.430;18.926;2023-02-18T09:18:01;98162.06;;;10.93;44.88
39487;BME280;25173;50.430;18.926;2023-02-18T09:21:02;98159.84;;;11.00;44.59
39487;BME280;25173;50.430;18.926;2023-02-18T09:24:04;98177.84;;;11.01;44.88
39487;BME280;25173;50.430;18.926;2023-02-18T09:27:04;98177.88;;;10.96;44.70
39487;BME280;25173;50.430;18.926;2023-02-18T09:30:06;98182.50;;;10.85;44.90
39487;BME280;25173;50.430;18.926;2023-02-18T09:33:06;98146.56;;;10.78;45.43
39487;BME280;25173;50.430;18.926;2023-02-18T09:36:07;98159.88;;;10.95;45.70
39487;BME280;25173;50.430;18.926;2023-02-18T09:39:08;98179.19;;;10.98;45.16
39487;BME280;25173;50.430;18.926;2023-02-18T09:42:17;98149.50;;;10.92;45.37
39487;BME280;25173;50.430;18.926;2023-02-18T09:45:20;98140.00;;;10.89;45.98
39487;BME280;25173;50.430;18.926;2023-02-18T09:48:30;98144.34;;;10.95;45.48
39487;BME280;25173;50.430;18.926;2023-02-18T09:51:33;98126.66;;;10.87;45.92
39487;BME280;25173;50.430;18.926;2023-02-18T09:54:33;98139.44;;;10.92;46.10
39487;BME280;25173;50.430;18.926;2023-02-18T09:57:39;98131.56;;;10.85;45.27
39487;BME280;25173;50.430;18.926;2023-02-18T10:00:43;98137.28;;;10.84;45.21
39487;BME280;25173;50.430;18.926;2023-02-18T10:03:46;98209.75;;;10.70;43.97
39487;BME280;25173;50.430;18.926;2023-02-18T10:06:47;98172.44;;;10.60;45.31
39487;BME280;25173;50.430;18.926;2023-02-18T10:09:49;98149.34;;;10.42;46.31
39487;BME280;25173;50.430;18.926;2023-02-18T10:12:52;98146.63;;;10.37;47.02
39487;BME280;25173;50.430;18.926;2023-02-18T10:15:53;98154.22;;;10.30;47.54
39487;BME280;25173;50.430;18.926;2023-02-18T10:19:00;98133.00;;;10.32;48.17
39487;BME280;25173;50.430;18.926;2023-02-18T10:22:05;98164.03;;;10.31;49.00
39487;BME280;25173;50.430;18.926;2023-02-18T10:25:07;98138.41;;;10.12;51.67
39487;BME280;25173;50.430;18.926;2023-02-18T10:28:09;98142.75;;;9.93;53.01
39487;BME280;25173;50.430;18.926;2023-02-18T10:31:16;98148.69;;;9.80;54.23
39487;BME280;25173;50.430;18.926;2023-02-18T10:34:44;98152.47;;;9.63;56.10
39487;BME280;25173;50.430;18.926;2023-02-18T10:38:19;98150.31;;;9.60;55.63
39487;BME280;25173;50.430;18.926;2023-02-18T10:45:02;98133.72;;;9.62;55.60
39487;BME280;25173;50.430;18.926;2023-02-18T10:51:33;98139.69;;;9.64;54.87
39487;BME280;25173;50.430;18.926;2023-02-18T10:54:59;98134.00;;;9.55;56.26
39487;BME280;25173;50.430;18.926;2023-02-18T10:58:00;98115.47;;;9.47;56.36
39487;BME280;25173;50.430;18.926;2023-02-18T11:01:04;98124.41;;;9.43;56.69
39487;BME280;25173;50.430;18.926;2023-02-18T11:04:17;98137.19;;;9.32;56.37
39487;BME280;25173;50.430;18.926;2023-02-18T11:07:22;98111.59;;;9.23;56.44
39487;BME280;25173;50.430;18.926;2023-02-18T11:10:25;98112.13;;;9.20;56.41
39487;BME280;25173;50.430;18.926;2023-02-18T11:13:29;98113.22;;;9.24;56.01
39487;BME280;25173;50.430;18.926;2023-02-18T11:16:39;98087.97;;;9.23;55.91
39487;BME280;25173;50.430;18.926;2023-02-18T11:19:40;98090.16;;;9.37;55.85
39487;BME280;25173;50.430;18.926;2023-02-18T11:22:41;98084.75;;;9.57;55.80
39487;BME280;25173;50.430;18.926;2023-02-18T11:26:02;98087.25;;;9.68;55.65
39487;BME280;25173;50.430;18.926;2023-02-18T11:29:33;98071.19;;;9.82;55.60
39487;BME280;25173;50.430;18.926;2023-02-18T11:32:35;98087.00;;;9.85;55.12
39487;BME280;25173;50.430;18.926;2023-02-18T11:35:36;98064.97;;;9.92;55.24
39487;BME280;25173;50.430;18.926;2023-02-18T11:41:46;98051.06;;;10.13;55.17
39487;BME280;25173;50.430;18.926;2023-02-18T11:44:53;98035.03;;;10.22;55.74
39487;BME280;25173;50.430;18.926;2023-02-18T11:48:00;98033.09;;;10.23;57.22
39487;BME280;25173;50.430;18.926;2023-02-18T11:51:01;98031.75;;;10.25;57.67
39487;BME280;25173;50.430;18.926;2023-02-18T11:54:05;98008.63;;;10.12;58.68
39487;BME280;25173;50.430;18.926;2023-02-18T11:57:21;98024.13;;;10.07;58.92
39487;BME280;25173;50.430;18.926;2023-02-18T12:00:42;98018.19;;;9.85;60.22
39487;BME280;25173;50.430;18.926;2023-02-18T12:10:00;98025.16;;;9.10;63.52
39487;BME280;25173;50.430;18.926;2023-02-18T12:13:20;98019.66;;;8.89;65.14
39487;BME280;25173;50.430;18.926;2023-02-18T12:26:23;97995.38;;;8.57;67.39
39487;BME280;25173;50.430;18.926;2023-02-18T12:29:45;97992.72;;;8.73;67.77
39487;BME280;25173;50.430;18.926;2023-02-18T12:36:22;97974.81;;;8.82;68.66
39487;BME280;25173;50.430;18.926;2023-02-18T12:39:57;97956.66;;;8.87;68.52
39487;BME280;25173;50.430;18.926;2023-02-18T12:46:35;97930.34;;;9.03;68.62
39487;BME280;25173;50.430;18.926;2023-02-18T13:03:47;97887.69;;;9.29;68.33
39487;BME280;25173;50.430;18.926;2023-02-18T13:09:43;97865.69;;;9.25;68.69
39487;BME280;25173;50.430;18.926;2023-02-18T13:16:08;97848.28;;;9.47;68.77
39487;BME280;25173;50.430;18.926;2023-02-18T13:19:20;97840.06;;;9.67;69.11
39487;BME280;25173;50.430;18.926;2023-02-18T13:22:24;97827.78;;;9.80;68.69
39487;BME280;25173;50.430;18.926;2023-02-18T13:25:26;97827.75;;;9.90;68.56
39487;BME280;25173;50.430;18.926;2023-02-18T13:31:51;97818.75;;;9.99;68.91
39487;BME280;25173;50.430;18.926;2023-02-18T13:38:30;97797.16;;;10.23;69.01
39487;BME280;25173;50.430;18.926;2023-02-18T13:41:37;97790.09;;;10.22;68.25
39487;BME280;25173;50.430;18.926;2023-02-18T13:45:03;97788.47;;;10.21;68.95
39487;BME280;25173;50.430;18.926;2023-02-18T13:48:21;97771.56;;;10.24;68.80
39487;BME280;25173;50.430;18.926;2023-02-18T13:51:38;97772.16;;;10.21;68.36
39487;BME280;25173;50.430;18.926;2023-02-18T13:54:41;97766.16;;;10.19;68.47
39487;BME280;25173;50.430;18.926;2023-02-18T13:57:46;97750.59;;;10.25;68.58
39487;BME280;25173;50.430;18.926;2023-02-18T14:07:44;97722.97;;;10.46;68.78
39487;BME280;25173;50.430;18.926;2023-02-18T14:14:32;97709.03;;;10.53;69.06
39487;BME280;25173;50.430;18.926;2023-02-18T14:17:37;97702.22;;;10.56;68.75
39487;BME280;25173;50.430;18.926;2023-02-18T14:23:43;97672.72;;;10.63;68.66
39487;BME280;25173;50.430;18.926;2023-02-18T14:26:46;97662.94;;;10.62;68.37
39487;BME280;25173;50.430;18.926;2023-02-18T14:29:50;97658.59;;;10.61;68.75
39487;BME280;25173;50.430;18.926;2023-02-18T14:32:55;97652.63;;;10.59;68.61
39487;BME280;25173;50.430;18.926;2023-02-18T14:43:12;97615.16;;;10.45;68.67
39487;BME280;25173;50.430;18.926;2023-02-18T14:49:58;97592.16;;;10.33;68.46
39487;BME280;25173;50.430;18.926;2023-02-18T14:53:10;97585.94;;;10.27;68.66
39487;BME280;25173;50.430;18.926;2023-02-18T14:56:19;97575.06;;;10.27;68.68
39487;BME280;25173;50.430;18.926;2023-02-18T14:59:24;97569.72;;;10.17;68.67
39487;BME280;25173;50.430;18.926;2023-02-18T15:02:27;97552.88;;;10.10;69.05
39487;BME280;25173;50.430;18.926;2023-02-18T15:05:31;97557.22;;;10.11;69.03
39487;BME280;25173;50.430;18.926;2023-02-18T15:08:36;97543.34;;;10.12;68.99
39487;BME280;25173;50.430;18.926;2023-02-18T15:11:40;97550.16;;;10.10;69.10
39487;BME280;25173;50.430;18.926;2023-02-18T15:14:44;97536.00;;;10.08;69.15
39487;BME280;25173;50.430;18.926;2023-02-18T15:17:47;97516.22;;;10.02;69.28
39487;BME280;25173;50.430;18.926;2023-02-18T15:20:48;97519.03;;;9.92;69.75
39487;BME280;25173;50.430;18.926;2023-02-18T15:23:49;97521.50;;;9.89;70.10
39487;BME280;25173;50.430;18.926;2023-02-18T15:26:52;97506.00;;;9.89;70.21
39487;BME280;25173;50.430;18.926;2023-02-18T15:33:10;97487.72;;;9.95;70.70
39487;BME280;25173;50.430;18.926;2023-02-18T15:36:13;97482.00;;;9.96;71.09
39487;BME280;25173;50.430;18.926;2023-02-18T15:39:14;97487.69;;;10.00;71.16
39487;BME280;25173;50.430;18.926;2023-02-18T15:42:35;97500.69;;;10.03;71.77
39487;BME280;25173;50.430;18.926;2023-02-18T15:45:42;97489.81;;;10.03;72.10
39487;BME280;25173;50.430;18.926;2023-02-18T15:48:47;97480.22;;;10.10;72.34
39487;BME280;25173;50.430;18.926;2023-02-18T15:51:54;97486.41;;;10.16;72.62
39487;BME280;25173;50.430;18.926;2023-02-18T15:55:02;97475.00;;;10.19;72.94
39487;BME280;25173;50.430;18.926;2023-02-18T15:58:15;97464.66;;;10.21;73.54
39487;BME280;25173;50.430;18.926;2023-02-18T16:01:26;97471.66;;;10.27;73.83
39487;BME280;25173;50.430;18.926;2023-02-18T16:04:31;97476.81;;;10.29;74.08
39487;BME280;25173;50.430;18.926;2023-02-18T16:07:47;97455.84;;;10.29;74.63
39487;BME280;25173;50.430;18.926;2023-02-18T16:11:10;97466.66;;;10.34;75.71
39487;BME280;25173;50.430;18.926;2023-02-18T16:17:28;97456.41;;;10.50;74.99
39487;BME280;25173;50.430;18.926;2023-02-18T16:20:34;97445.97;;;10.57;75.17
39487;BME280;25173;50.430;18.926;2023-02-18T16:24:03;97451.16;;;10.59;75.20
39487;BME280;25173;50.430;18.926;2023-02-18T16:27:05;97453.34;;;10.57;76.06
39487;BME280;25173;50.430;18.926;2023-02-18T16:30:27;97465.84;;;10.58;76.58
39487;BME280;25173;50.430;18.926;2023-02-18T16:33:28;97465.84;;;10.58;76.45
39487;BME280;25173;50.430;18.926;2023-02-18T16:36:30;97460.41;;;10.58;76.43
39487;BME280;25173;50.430;18.926;2023-02-18T16:39:33;97469.16;;;10.55;76.94
39487;BME280;25173;50.430;18.926;2023-02-18T16:42:34;97467.47;;;10.59;77.07
39487;BME280;25173;50.430;18.926;2023-02-18T16:45:39;97464.44;;;10.60;77.18
39487;BME280;25173;50.430;18.926;2023-02-18T16:48:43;97466.34;;;10.60;77.25
39487;BME280;25173;50.430;18.926;2023-02-18T16:51:45;97463.34;;;10.61;77.73
39487;BME280;25173;50.430;18.926;2023-02-18T16:54:47;97465.25;;;10.61;77.66
39487;BME280;25173;50.430;18.926;2023-02-18T16:57:49;97470.94;;;10.64;77.81
39487;BME280;25173;50.430;18.926;2023-02-18T17:00:51;97480.13;;;10.68;77.97
39487;BME280;25173;50.430;18.926;2023-02-18T17:03:52;97473.31;;;10.71;77.90
39487;BME280;25173;50.430;18.926;2023-02-18T17:06:53;97487.38;;;10.78;77.74
39487;BME280;25173;50.430;18.926;2023-02-18T17:09:54;97479.22;;;10.78;78.54
39487;BME280;25173;50.430;18.926;2023-02-18T17:12:54;97477.59;;;10.77;78.97
39487;BME280;25173;50.430;18.926;2023-02-18T17:15:56;97471.31;;;10.76;78.74
39487;BME280;25173;50.430;18.926;2023-02-18T17:18:57;97468.31;;;10.78;78.49
39487;BME280;25173;50.430;18.926;2023-02-18T17:21:57;97480.59;;;10.75;78.86
39487;BME280;25173;50.430;18.926;2023-02-18T17:24:58;97499.16;;;10.73;78.82
39487;BME280;25173;50.430;18.926;2023-02-18T17:27:59;97475.00;;;10.67;79.06
39487;BME280;25173;50.430;18.926;2023-02-18T17:31:00;97490.75;;;10.70;78.62
39487;BME280;25173;50.430;18.926;2023-02-18T17:34:04;97495.09;;;10.71;78.53
39487;BME280;25173;50.430;18.926;2023-02-18T17:37:11;97496.44;;;10.73;78.35
39487;BME280;25173;50.430;18.926;2023-02-18T17:40:16;97499.97;;;10.74;78.39
39487;BME280;25173;50.430;18.926;2023-02-18T17:43:17;97507.63;;;10.72;78.48
39487;BME280;25173;50.430;18.926;2023-02-18T17:46:18;97507.63;;;10.72;78.29
39487;BME280;25173;50.430;18.926;2023-02-18T17:49:19;97541.41;;;10.71;78.42
39487;BME280;25173;50.430;18.926;2023-02-18T17:52:28;97530.78;;;10.69;78.08
39487;BME280;25173;50.430;18.926;2023-02-18T17:55:31;97513.06;;;10.72;78.15
39487;BME280;25173;50.430;18.926;2023-02-18T17:58:32;97515.78;;;10.72;78.11
39487;BME280;25173;50.430;18.926;2023-02-18T18:01:33;97525.88;;;10.71;77.99
39487;BME280;25173;50.430;18.926;2023-02-18T18:04:34;97544.19;;;10.66;78.42
39487;BME280;25173;50.430;18.926;2023-02-18T18:07:35;97549.66;;;10.61;78.56
39487;BME280;25173;50.430;18.926;2023-02-18T18:10:38;97549.66;;;10.61;78.29
39487;BME280;25173;50.430;18.926;2023-02-18T18:13:40;97547.25;;;10.59;78.26
39487;BME280;25173;50.430;18.926;2023-02-18T18:16:40;97546.09;;;10.65;77.97
39487;BME280;25173;50.430;18.926;2023-02-18T18:19:41;97545.81;;;10.67;77.73
39487;BME280;25173;50.430;18.926;2023-02-18T18:22:42;97527.59;;;10.62;77.35
39487;BME280;25173;50.430;18.926;2023-02-18T18:25:45;97543.66;;;10.64;77.04